Time;durP1;ratioP1;P1;durP2;ratioP2;P2;SDS_P1;SDS_P2;PMS_P1;PMS_P2;Temp;Humidity;BMP_temperature;BMP_pressure;BME280_temperature;BME280_humidity;BME280_pressure;Samples;Min_cycle;Max_cycle;Signal;HPM_P1;HPM_P2
2021/11/07 00:04:06;;;;;;;12.10;6.50;;;;;;;9.60;75.83;101136.83;1611886;89;21844;-85
2021/11/07 00:09:07;;;;;;;10.85;6.60;;;;;;;9.62;75.85;101126.83;1612024;89;21122;-85
2021/11/07 00:11:36;;;;;;;9.98;6.12;;;;;;;9.64;75.85;101125.58;1610274;89;21224;-85
2021/11/07 00:14:05;;;;;;;12.40;6.83;;;;;;;9.67;75.87;101129.21;1612195;89;21110;-85
2021/11/07 00:16:35;;;;;;;9.93;6.58;;;;;;;9.69;75.88;101131.47;1617417;86;21800;-85
2021/11/07 00:21:38;;;;;;;12.10;6.90;;;;;;;9.73;75.81;101116.70;1644190;86;21650;-85
2021/11/07 00:24:08;;;;;;;8.55;6.50;;;;;;;9.77;75.77;101122.53;1631451;87;21139;-85
2021/11/07 00:26:37;;;;;;;12.18;6.42;;;;;;;9.78;75.65;101119.08;1631610;87;21098;-85
2021/11/07 00:29:16;;;;;;;10.82;6.55;;;;;;;9.79;75.71;101121.27;1631567;87;22217;-85
2021/11/07 00:37:01;;;;;;;9.20;5.65;;;;;;;9.77;75.48;101101.50;1645850;87;21013;-85
2021/11/07 00:39:38;;;;;;;11.30;6.17;;;;;;;9.75;75.47;101084.78;1645663;87;21541;-84
2021/11/07 00:42:14;;;;;;;10.98;7.05;;;;;;;9.72;75.39;101075.47;1644386;87;22041;-85
2021/11/07 00:44:54;;;;;;;13.58;6.72;;;;;;;9.68;75.36;101069.64;1644638;87;21519;-85
2021/11/07 00:49:57;;;;;;;9.63;6.30;;;;;;;9.59;75.33;101047.91;1645875;87;21653;-86
2021/11/07 00:52:31;;;;;;;8.90;6.20;;;;;;;9.55;75.33;101035.48;1645331;87;21072;-86
2021/11/07 00:55:38;;;;;;;14.30;7.10;;;;;;;9.51;75.32;101025.70;1643919;87;21819;-87
2021/11/07 00:57:28;;;;;;;15.15;9.18;;;;;;;9.50;75.34;101024.83;1631451;87;21048;-87
2021/11/07 01:00:01;;;;;;;14.20;6.17;;;;;;;9.48;75.34;101019.06;1645528;87;21585;-86
2021/11/07 01:02:31;;;;;;;10.58;6.20;;;;;;;9.48;75.35;101014.69;1644476;87;21048;-86
2021/11/07 01:04:59;;;;;;;8.20;5.53;;;;;;;9.47;75.32;101010.26;1645989;87;21236;-85
2021/11/07 01:07:26;;;;;;;10.58;5.97;;;;;;;9.48;75.34;100994.09;1645820;87;21718;-83
2021/11/07 01:09:54;;;;;;;8.38;5.53;;;;;;;9.47;75.29;100989.23;1645792;87;21119;-86
2021/11/07 01:12:21;;;;;;;9.15;5.72;;;;;;;9.48;75.26;100994.09;1645942;86;21107;-85
2021/11/07 01:14:51;;;;;;;6.75;5.25;;;;;;;9.47;75.19;100996.23;1618174;87;21095;-86
2021/11/07 01:17:19;;;;;;;8.25;5.37;;;;;;;9.46;75.15;100993.13;1645699;87;21103;-86
2021/11/07 01:19:47;;;;;;;6.97;5.15;;;;;;;9.42;75.06;100991.23;1645569;87;21921;-83
2021/11/07 01:22:18;;;;;;;8.75;5.60;;;;;;;9.38;75.06;100984.98;1645873;87;21095;-83
2021/11/07 01:24:51;;;;;;;8.40;6.05;;;;;;;9.37;75.05;100982.34;1645758;87;21784;-85
2021/11/07 01:29:45;;;;;;;11.65;5.40;;;;;;;9.31;74.97;100958.06;1645840;87;21644;-86
2021/11/07 01:32:08;;;;;;;10.20;6.03;;;;;;;9.29;74.97;100953.16;1645340;87;21804;-86
2021/11/07 01:37:07;;;;;;;13.28;5.53;;;;;;;9.26;74.89;100945.19;1645997;87;21184;-85
2021/11/07 01:39:42;;;;;;;10.45;5.53;;;;;;;9.24;74.84;100941.19;1645115;87;21132;-86
2021/11/07 01:42:27;;;;;;;9.23;5.20;;;;;;;9.23;74.85;100939.82;1644953;87;21573;-85
2021/11/07 01:45:00;;;;;;;10.13;5.45;;;;;;;9.22;74.84;100927.55;1643310;87;21989;-84
2021/11/07 01:47:26;;;;;;;8.73;5.45;;;;;;;9.21;74.81;100923.12;1645536;87;21099;-84
2021/11/07 01:49:52;;;;;;;12.18;5.90;;;;;;;9.18;74.79;100919.07;1646010;87;21609;-84
2021/11/07 01:52:20;;;;;;;8.60;4.83;;;;;;;9.15;74.76;100912.88;1646094;87;21105;-84
2021/11/07 01:54:53;;;;;;;7.50;5.67;;;;;;;9.12;74.74;100916.73;1645769;87;21099;-84
2021/11/07 01:57:22;;;;;;;7.25;5.42;;;;;;;9.11;74.75;100907.05;1645750;87;21784;-85
2021/11/07 01:59:53;;;;;;;7.83;5.25;;;;;;;9.10;74.74;100911.86;1645894;87;21080;-85
2021/11/07 02:02:20;;;;;;;9.63;5.90;;;;;;;9.07;74.72;100913.05;1645826;87;21091;-84
2021/11/07 02:04:46;;;;;;;9.40;6.40;;;;;;;9.05;74.74;100905.98;1646002;87;21299;-84
2021/11/07 02:07:13;;;;;;;9.38;5.53;;;;;;;9.03;74.67;100900.67;1646022;87;21060;-84
2021/11/07 02:09:40;;;;;;;6.47;5.17;;;;;;;9.00;74.67;100892.67;1645948;87;21215;-84
2021/11/07 02:12:08;;;;;;;7.45;5.55;;;;;;;8.98;74.67;100881.23;1634115;86;21067;-85
2021/11/07 02:14:35;;;;;;;7.75;5.50;;;;;;;8.95;74.64;100878.09;1638715;86;21665;-85
2021/11/07 02:17:02;;;;;;;8.73;5.67;;;;;;;8.92;74.59;100870.11;1645997;87;21052;-85
2021/11/07 02:19:29;;;;;;;8.48;5.75;;;;;;;8.89;74.60;100852.92;1651442;86;21020;-85
2021/11/07 02:21:57;;;;;;;10.48;5.95;;;;;;;8.86;74.55;100851.93;1651061;86;21840;-84
2021/11/07 02:24:24;;;;;;;10.68;5.78;;;;;;;8.84;74.63;100847.05;1650982;86;21127;-83
2021/11/07 02:26:57;;;;;;;7.60;5.45;;;;;;;8.86;74.65;100845.37;1644931;86;21643;-83
2021/11/07 02:29:24;;;;;;;10.93;5.83;;;;;;;8.84;74.59;100836.16;1610351;88;21067;-82
2021/11/07 02:31:52;;;;;;;8.85;5.80;;;;;;;8.82;74.57;100835.22;1610528;88;21613;-82
2021/11/07 02:34:18;;;;;;;7.15;5.03;;;;;;;8.83;74.64;100832.16;1610572;89;21802;-82
2021/11/07 02:36:46;;;;;;;10.08;5.90;;;;;;;8.83;74.57;100838.73;1610665;89;21273;-83
2021/11/07 02:39:14;;;;;;;9.08;5.03;;;;;;;8.82;74.56;100829.97;1610743;88;21127;-84
2021/11/07 02:41:41;;;;;;;12.95;5.55;;;;;;;8.84;74.54;100827.37;1611025;88;21174;-86
2021/11/07 02:44:07;;;;;;;9.00;5.10;;;;;;;8.85;74.47;100826.55;1611126;89;21962;-86
2021/11/07 02:46:34;;;;;;;7.55;5.00;;;;;;;8.86;74.45;100820.43;1610831;88;22595;-84
2021/11/07 02:49:03;;;;;;;7.58;4.83;;;;;;;8.86;74.46;100812.55;1610668;89;21158;-84
2021/11/07 02:51:32;;;;;;;9.53;5.08;;;;;;;8.85;74.42;100814.73;1610863;88;21107;-84
2021/11/07 02:54:06;;;;;;;7.15;4.80;;;;;;;8.85;74.37;100810.36;1610862;88;21145;-83
2021/11/07 02:56:33;;;;;;;8.48;4.62;;;;;;;8.83;74.35;100815.98;1610814;89;21110;-83
2021/11/07 02:59:00;;;;;;;8.30;5.08;;;;;;;8.81;74.35;100812.42;1610824;89;21855;-83
2021/11/07 03:01:27;;;;;;;6.90;5.10;;;;;;;8.81;74.35;100807.60;1610549;88;21099;-83
2021/11/07 03:04:00;;;;;;;7.12;4.87;;;;;;;8.79;74.33;100797.48;1610809;88;21087;-83
2021/11/07 03:06:25;;;;;;;8.93;4.72;;;;;;;8.77;74.29;100791.29;1610864;88;21086;-86
2021/11/07 03:08:51;;;;;;;8.43;5.15;;;;;;;8.75;74.30;100792.55;1611076;88;21067;-86
2021/11/07 03:11:18;;;;;;;7.53;4.85;;;;;;;8.72;74.31;100787.18;1611111;88;22507;-86
2021/11/07 03:13:48;;;;;;;13.25;5.97;;;;;;;8.71;74.35;100783.67;1610810;89;21600;-86
2021/11/07 03:16:15;;;;;;;8.13;4.90;;;;;;;8.72;74.37;100780.63;1611000;88;21083;-84
2021/11/07 03:18:41;;;;;;;7.20;4.80;;;;;;;8.69;74.33;100772.23;1621860;87;21059;-86
2021/11/07 03:21:14;;;;;;;6.40;4.95;;;;;;;8.68;74.36;100765.20;1631832;87;21048;-87
2021/11/07 03:23:43;;;;;;;8.45;5.03;;;;;;;8.67;74.35;100748.08;1630781;87;23931;-86
2021/11/07 03:26:14;;;;;;;8.28;4.85;;;;;;;8.65;74.35;100734.94;1630791;87;21083;-87
2021/11/07 03:28:39;;;;;;;5.75;4.78;;;;;;;8.65;74.38;100745.44;1630900;87;21560;-86
2021/11/07 03:31:10;;;;;;;8.40;4.55;;;;;;;8.65;74.37;100770.36;1631208;87;21794;-84
2021/11/07 03:33:42;;;;;;;7.28;4.83;;;;;;;8.65;74.43;100771.67;1631358;87;21094;-84
2021/11/07 03:36:05;;;;;;;8.05;6.10;;;;;;;8.66;74.41;100769.50;1631436;87;21790;-83
2021/11/07 03:38:31;;;;;;;8.65;5.97;;;;;;;8.65;74.41;100755.93;1609643;88;21079;-83
2021/11/07 03:40:57;;;;;;;8.10;6.20;;;;;;;8.64;74.37;100742.75;1635647;87;21139;-84
2021/11/07 03:43:28;;;;;;;9.03;5.60;;;;;;;8.63;74.41;100733.97;1635477;87;21165;-84
2021/11/07 03:45:52;;;;;;;7.42;5.75;;;;;;;8.60;74.42;100722.08;1635237;87;21095;-84
2021/11/07 03:48:19;;;;;;;8.58;6.03;;;;;;;8.60;74.44;100719.45;1635111;87;21835;-84
2021/11/07 03:50:46;;;;;;;8.65;6.17;;;;;;;8.60;74.49;100710.27;1634965;87;21176;-83
2021/11/07 03:53:13;;;;;;;7.83;5.53;;;;;;;8.58;74.52;100714.58;1635859;87;21111;-85
2021/11/07 03:55:40;;;;;;;11.10;6.65;;;;;;;8.59;74.56;100708.48;1636041;87;21079;-86
2021/11/07 03:58:07;;;;;;;9.65;6.55;;;;;;;8.60;74.61;100715.52;1636056;87;21158;-86
2021/11/07 04:00:34;;;;;;;9.65;6.55;;;;;;;8.61;74.61;100709.41;1635993;87;21350;-86
2021/11/07 04:03:00;;;;;;;10.48;6.75;;;;;;;8.55;74.61;100698.30;1636048;87;21094;-84
2021/11/07 04:05:27;;;;;;;10.30;6.78;;;;;;;8.66;74.64;100714.83;1635377;87;21763;-83
2021/11/07 04:07:57;;;;;;;9.73;7.17;;;;;;;8.70;74.67;100704.89;1635601;87;21117;-83
2021/11/07 04:10:24;;;;;;;10.08;6.95;;;;;;;8.71;74.64;100690.95;1635516;87;21745;-83
2021/11/07 04:12:51;;;;;;;10.72;7.35;;;;;;;8.71;74.56;100695.77;1635459;87;21768;-83
2021/11/07 04:15:18;;;;;;;10.65;7.05;;;;;;;8.71;74.55;100698.39;1635643;87;21564;-83
2021/11/07 04:17:45;;;;;;;11.28;7.12;;;;;;;8.71;74.60;100689.20;1635714;87;21575;-83
2021/11/07 04:20:12;;;;;;;9.58;7.10;;;;;;;8.72;74.54;100683.09;1635643;87;21577;-83
2021/11/07 04:22:40;;;;;;;10.32;7.00;;;;;;;8.71;74.52;100677.83;1635884;87;21184;-83
2021/11/07 04:25:07;;;;;;;12.15;8.03;;;;;;;8.72;74.56;100677.84;1636053;87;21793;-86
2021/11/07 04:27:35;;;;;;;10.80;7.95;;;;;;;8.73;74.54;100666.52;1635782;87;21219;-86
2021/11/07 04:30:03;;;;;;;12.35;8.28;;;;;;;8.74;74.52;100663.03;1635452;87;22158;-87
2021/11/07 04:32:29;;;;;;;10.20;7.15;;;;;;;8.75;74.55;100663.95;1635234;87;21114;-86
2021/11/07 04:34:56;;;;;;;9.43;7.20;;;;;;;8.75;74.50;100644.27;1635544;87;21591;-86
2021/11/07 04:37:23;;;;;;;11.05;7.85;;;;;;;8.73;74.45;100639.39;1635354;87;21791;-86
2021/11/07 04:39:50;;;;;;;10.65;7.50;;;;;;;8.71;74.43;100628.84;1635364;87;21158;-86
2021/11/07 04:42:17;;;;;;;11.55;8.23;;;;;;;8.68;74.42;100627.43;1635329;87;21111;-86
2021/11/07 04:44:43;;;;;;;10.72;8.20;;;;;;;8.65;74.44;100614.23;1635254;87;21098;-86
2021/11/07 04:47:10;;;;;;;13.05;8.05;;;;;;;8.64;74.45;100608.94;1635058;87;21130;-86
2021/11/07 04:49:37;;;;;;;11.95;8.25;;;;;;;8.62;74.51;100610.20;1635182;87;21774;-86
2021/11/07 04:52:04;;;;;;;13.50;8.55;;;;;;;8.56;74.46;100582.47;1635045;87;21059;-87
2021/11/07 04:54:31;;;;;;;11.43;8.08;;;;;;;8.50;74.47;100580.55;1634978;87;21106;-87
2021/11/07 04:56:58;;;;;;;12.20;8.20;;;;;;;8.48;74.57;100583.52;1634913;87;21441;-87
2021/11/07 04:59:25;;;;;;;13.58;8.38;;;;;;;8.46;74.61;100577.34;1634700;87;21090;-86
2021/11/07 05:01:52;;;;;;;12.85;8.78;;;;;;;8.44;74.64;100586.89;1635262;87;21784;-87
2021/11/07 05:04:18;;;;;;;12.25;9.45;;;;;;;8.43;74.71;100586.84;1635663;87;21606;-86
2021/11/07 05:06:49;;;;;;;11.60;8.25;;;;;;;8.43;74.77;100586.84;1635932;87;21039;-86
2021/11/07 05:09:13;;;;;;;12.88;8.85;;;;;;;8.45;74.82;100578.63;1636170;87;21096;-86
2021/11/07 05:11:42;;;;;;;15.25;8.95;;;;;;;8.45;74.84;100561.58;1636326;87;21605;-86
2021/11/07 05:14:08;;;;;;;14.38;9.45;;;;;;;8.46;74.82;100565.97;1636178;87;21812;-86
2021/11/07 05:16:35;;;;;;;14.65;9.43;;;;;;;8.45;74.88;100579.51;1636159;87;21090;-87
2021/11/07 05:19:03;;;;;;;12.18;9.20;;;;;;;8.46;74.89;100561.59;1635853;87;21124;-87
2021/11/07 05:21:30;;;;;;;12.60;9.75;;;;;;;8.48;74.85;100548.53;1635834;87;21106;-86
2021/11/07 05:23:57;;;;;;;13.70;9.43;;;;;;;8.48;74.82;100541.98;1636177;87;21075;-86
2021/11/07 05:26:24;;;;;;;14.25;9.53;;;;;;;8.46;74.83;100545.86;1636063;87;22426;-85
2021/11/07 05:28:50;;;;;;;12.68;9.30;;;;;;;8.46;74.89;100547.17;1636081;87;21951;-86
2021/11/07 05:31:18;;;;;;;12.55;9.73;;;;;;;8.47;74.87;100532.34;1636150;87;21549;-87
2021/11/07 05:33:44;;;;;;;14.90;10.35;;;;;;;8.47;74.85;100531.03;1636326;87;21083;-87
2021/11/07 05:36:12;;;;;;;15.50;10.03;;;;;;;8.47;74.81;100531.03;1636188;87;21171;-85
2021/11/07 05:38:39;;;;;;;15.13;10.75;;;;;;;8.47;74.88;100549.40;1636702;87;21842;-85
2021/11/07 05:41:06;;;;;;;15.93;10.88;;;;;;;8.47;74.94;100548.08;1636726;87;21531;-83
2021/11/07 05:43:33;;;;;;;14.15;10.53;;;;;;;8.47;74.85;100545.47;1636718;87;21060;-86
2021/11/07 05:45:59;;;;;;;14.98;11.08;;;;;;;8.45;74.84;100543.22;1636692;87;21077;-86
2021/11/07 05:48:26;;;;;;;16.15;11.63;;;;;;;8.44;74.87;100542.73;1636688;87;21103;-83
2021/11/07 05:50:53;;;;;;;16.20;12.25;;;;;;;8.41;74.81;100550.46;1636636;87;22511;-86
2021/11/07 05:53:20;;;;;;;16.23;11.63;;;;;;;8.40;74.90;100543.02;1636645;87;21069;-83
2021/11/07 05:55:47;;;;;;;13.70;11.93;;;;;;;8.39;74.89;100543.89;1636612;87;21144;-83
2021/11/07 05:58:13;;;;;;;16.87;11.28;;;;;;;8.30;74.87;100529.18;1636481;87;21108;-83
2021/11/07 06:00:40;;;;;;;16.35;12.53;;;;;;;8.38;74.93;100549.53;1636299;87;21382;-84
2021/11/07 06:03:07;;;;;;;18.70;12.50;;;;;;;8.41;74.89;100545.22;1636333;87;22601;-84
2021/11/07 06:05:35;;;;;;;17.82;13.03;;;;;;;8.40;74.92;100544.77;1636169;87;21135;-83
2021/11/07 06:08:02;;;;;;;15.40;12.05;;;;;;;8.42;74.95;100539.18;1636239;87;21607;-84
2021/11/07 06:10:29;;;;;;;16.65;12.75;;;;;;;8.43;74.95;100531.36;1636130;87;21107;-85
2021/11/07 06:12:56;;;;;;;21.17;12.63;;;;;;;8.43;74.85;100530.05;1606536;87;21913;-84
2021/11/07 06:15:22;;;;;;;17.02;12.58;;;;;;;8.44;74.89;100534.44;1635957;87;21759;-83
2021/11/07 06:17:49;;;;;;;20.00;13.90;;;;;;;8.45;74.88;100528.80;1635882;87;21109;-85
2021/11/07 06:20:16;;;;;;;21.02;13.75;;;;;;;8.46;74.84;100529.23;1635328;86;21084;-82
2021/11/07 06:22:42;;;;;;;16.37;12.60;;;;;;;8.44;74.78;100521.75;1635321;87;21310;-82
2021/11/07 06:25:09;;;;;;;20.65;14.75;;;;;;;8.44;74.77;100517.38;1635938;87;21110;-86
2021/11/07 06:27:36;;;;;;;19.52;12.95;;;;;;;8.44;74.83;100514.77;1635615;86;21810;-82
2021/11/07 06:30:08;;;;;;;16.52;12.82;;;;;;;8.44;74.78;100517.38;1635264;86;21100;-81
2021/11/07 06:32:35;;;;;;;16.70;12.53;;;;;;;8.45;74.79;100518.30;1635447;87;21487;-84
2021/11/07 06:35:05;;;;;;;20.27;13.40;;;;;;;8.44;74.81;100510.83;1636008;87;21112;-84
2021/11/07 06:37:31;;;;;;;24.27;13.83;;;;;;;8.45;74.81;100507.38;1635784;87;21076;-86
2021/11/07 06:39:58;;;;;;;18.52;13.65;;;;;;;8.46;74.86;100493.40;1635167;86;21785;-86
2021/11/07 06:42:36;;;;;;;17.98;12.90;;;;;;;8.47;74.77;100490.38;1643292;86;21086;-86
2021/11/07 06:45:04;;;;;;;18.67;12.95;;;;;;;8.46;74.72;100485.96;1643080;86;21606;-85
2021/11/07 06:47:30;;;;;;;16.90;12.82;;;;;;;8.44;74.74;100474.53;1651983;86;21657;-85
2021/11/07 06:49:58;;;;;;;24.72;13.65;;;;;;;8.44;74.77;100476.73;1643387;86;21222;-85
2021/11/07 06:52:25;;;;;;;16.67;12.40;;;;;;;8.45;74.84;100467.16;1644142;86;21797;-85
2021/11/07 06:54:53;;;;;;;17.73;12.33;;;;;;;8.45;74.79;100462.78;1652185;85;21134;-83
2021/11/07 06:57:20;;;;;;;18.60;13.35;;;;;;;8.47;74.73;100461.52;1645695;86;21058;-83
2021/11/07 06:59:47;;;;;;;19.65;12.78;;;;;;;8.47;74.77;100456.28;1652637;86;21182;-82
2021/11/07 07:02:14;;;;;;;17.67;13.20;;;;;;;8.48;74.72;100452.79;1651488;86;21552;-83
2021/11/07 07:04:41;;;;;;;18.62;12.93;;;;;;;8.48;74.75;100447.55;1652116;86;21775;-83
2021/11/07 07:07:07;;;;;;;19.60;13.05;;;;;;;8.47;74.74;100453.22;1646790;86;21117;-83
2021/11/07 07:09:44;;;;;;;19.00;14.20;;;;;;;8.46;74.74;100448.81;1636722;86;21018;-84
2021/11/07 07:12:11;;;;;;;14.85;12.07;;;;;;;8.47;74.79;100436.60;1633809;86;21119;-85
2021/11/07 07:14:45;;;;;;;17.32;12.90;;;;;;;8.48;74.80;100430.50;1634578;87;21108;-85
2021/11/07 07:22:45;;;;;;;18.05;13.32;;;;;;;8.53;74.75;100411.41;1616547;87;22400;-83
2021/11/07 07:25:15;;;;;;;15.85;11.97;;;;;;;8.57;74.83;100407.14;1615772;88;21428;-83
2021/11/07 07:27:33;;;;;;;18.23;12.60;;;;;;;8.60;74.80;100401.99;1616152;88;21063;-86
2021/11/07 07:34:53;;;;;;;14.07;11.95;;;;;;;8.71;74.64;100390.05;1616379;88;21098;-84
2021/11/07 07:37:17;;;;;;;16.82;12.85;;;;;;;8.72;74.62;100381.31;1616252;88;21277;-84
2021/11/07 07:39:44;;;;;;;13.93;12.10;;;;;;;8.77;74.65;100377.52;1616276;88;21083;-83
2021/11/07 07:42:10;;;;;;;15.32;11.97;;;;;;;8.79;74.56;100378.45;1616198;88;22594;-84
2021/11/07 07:44:37;;;;;;;16.42;11.97;;;;;;;8.82;74.52;100364.50;1616244;88;21068;-85
2021/11/07 07:47:04;;;;;;;16.17;11.73;;;;;;;8.88;74.52;100373.87;1616333;88;21012;-88
2021/11/07 07:49:30;;;;;;;13.38;11.25;;;;;;;8.93;74.42;100365.27;1616572;87;22278;-88
2021/11/07 07:51:58;;;;;;;15.35;11.45;;;;;;;8.95;74.32;100358.71;1616607;87;21044;-88
2021/11/07 07:54:25;;;;;;;15.23;13.08;;;;;;;8.99;74.33;100367.55;1616357;88;21872;-91
2021/11/07 07:56:52;;;;;;;17.57;12.90;;;;;;;8.98;74.33;100360.11;1616374;88;21108;-90
2021/11/07 07:59:19;;;;;;;15.40;12.13;;;;;;;8.99;74.33;100354.03;1616483;87;21114;-90
2021/11/07 08:01:45;;;;;;;18.20;13.22;;;;;;;9.02;74.32;100356.71;1616207;88;21254;-83
2021/11/07 08:04:12;;;;;;;16.37;12.70;;;;;;;9.04;74.26;100348.44;1638381;86;21088;-82
2021/11/07 08:06:39;;;;;;;19.73;15.38;;;;;;;9.04;74.18;100348.87;1643974;87;21758;-89
2021/11/07 08:09:06;;;;;;;15.90;13.13;;;;;;;9.03;74.19;100348.00;1644089;86;21037;-89
2021/11/07 08:11:33;;;;;;;19.48;12.55;;;;;;;9.07;74.35;100349.84;1644092;87;21559;-88
2021/11/07 08:13:59;;;;;;;22.70;13.98;;;;;;;9.09;74.26;100340.27;1644124;87;21626;-88
2021/11/07 08:16:30;;;;;;;19.77;14.95;;;;;;;9.09;74.19;100340.27;1644087;87;21103;-86
2021/11/07 08:18:56;;;;;;;15.23;12.70;;;;;;;9.07;74.11;100344.59;1643939;85;21869;-91
2021/11/07 08:21:26;;;;;;;20.15;13.50;;;;;;;9.06;74.22;100344.55;1662645;85;21055;-87
2021/11/07 08:23:53;;;;;;;18.87;14.07;;;;;;;9.08;74.17;100333.66;1663650;86;21007;-88
2021/11/07 08:26:21;;;;;;;23.00;15.25;;;;;;;9.07;74.11;100322.71;1664531;86;21424;-88
2021/11/07 08:28:48;;;;;;;17.77;13.68;;;;;;;9.07;74.14;100328.84;1664928;86;21102;-90
2021/11/07 08:31:23;;;;;;;19.12;13.48;;;;;;;9.08;74.16;100327.09;1665246;86;21866;-93
2021/11/07 08:33:46;;;;;;;23.47;15.48;;;;;;;9.10;74.16;100315.80;1663877;86;21086;-87
2021/11/07 08:36:19;;;;;;;18.92;13.60;;;;;;;9.15;74.17;100312.83;1664844;86;21012;-88
2021/11/07 08:38:49;;;;;;;18.70;13.40;;;;;;;9.19;74.12;100311.60;1663879;86;21249;-87
2021/11/07 08:41:12;;;;;;;16.82;13.15;;;;;;;9.24;74.18;100301.67;1662994;86;21098;-87
2021/11/07 09:00:19;;;;;;;21.02;15.70;;;;;;;9.32;74.48;100284.77;1656574;86;21142;-89
2021/11/07 09:05:25;;;;;;;20.87;15.97;;;;;;;9.13;74.61;100270.34;1657057;86;21611;-88
2021/11/07 09:10:32;;;;;;;15.28;11.57;;;;;;;9.03;74.75;100277.12;1657069;86;21784;-88
2021/11/07 09:13:00;;;;;;;15.80;11.73;;;;;;;8.99;75.12;100279.61;1629188;88;21142;-90
2021/11/07 09:15:27;;;;;;;13.30;10.10;;;;;;;8.95;75.12;100273.00;1629134;86;21095;-88
2021/11/07 09:17:55;;;;;;;10.00;8.75;;;;;;;8.90;75.37;100268.06;1630710;88;21546;-87
2021/11/07 09:20:29;;;;;;;11.83;10.40;;;;;;;8.84;75.32;100267.01;1657381;86;21110;-86
2021/11/07 09:23:03;;;;;;;26.85;16.87;;;;;;;8.66;75.66;100246.47;1630513;87;21530;-87
2021/11/07 09:25:34;;;;;;;24.60;15.23;;;;;;;8.82;75.84;100264.37;1656512;86;21111;-88
2021/11/07 09:28:01;;;;;;;19.20;13.15;;;;;;;8.89;76.06;100254.89;1627062;87;21605;-82
2021/11/07 09:30:34;;;;;;;15.40;10.93;;;;;;;8.89;76.14;100253.14;1644248;86;21135;-84
2021/11/07 09:33:08;;;;;;;12.03;9.58;;;;;;;8.94;76.34;100253.27;1655286;86;21143;-84
2021/11/07 09:38:24;;;;;;;10.50;8.85;;;;;;;8.99;76.28;100249.02;1649184;86;21107;-82
2021/11/07 09:40:27;;;;;;;8.93;7.12;;;;;;;8.98;76.26;100244.61;1639733;86;21091;-83
2021/11/07 09:48:24;;;;;;;10.50;8.03;;;;;;;8.79;76.41;100231.92;1600921;88;22868;-85
2021/11/07 09:50:36;;;;;;;9.68;7.67;;;;;;;8.76;76.40;100218.28;1596794;88;21176;-86
2021/11/07 09:53:03;;;;;;;9.33;7.37;;;;;;;8.77;76.60;100228.38;1620451;87;21133;-83
2021/11/07 09:55:31;;;;;;;7.22;6.53;;;;;;;8.78;76.56;100223.57;1615588;87;21182;-84
2021/11/07 09:57:59;;;;;;;7.47;6.50;;;;;;;8.81;76.75;100219.28;1590738;89;22243;-83
2021/11/07 10:00:30;;;;;;;8.83;6.45;;;;;;;8.91;76.83;100215.12;1588891;89;21684;-83
2021/11/07 10:02:57;;;;;;;9.00;5.80;;;;;;;8.92;76.72;100218.23;1574965;89;21127;-83
2021/11/07 10:05:25;;;;;;;6.30;5.47;;;;;;;8.94;76.80;100209.96;1613112;88;21341;-82
2021/11/07 10:08:03;;;;;;;8.83;6.97;;;;;;;8.98;76.75;100211.80;1610375;88;21146;-83
2021/11/07 10:10:34;;;;;;;9.18;8.13;;;;;;;9.03;76.85;100206.64;1607541;88;21923;-85
2021/11/07 10:13:08;;;;;;;8.13;6.05;;;;;;;9.12;76.93;100197.25;1614487;87;21784;-85
2021/11/07 10:15:43;;;;;;;6.60;5.90;;;;;;;9.18;76.86;100196.90;1610353;88;21457;-84
2021/11/07 10:18:09;;;;;;;6.35;5.53;;;;;;;9.21;76.73;100194.35;1598470;88;21240;-82
2021/11/07 10:20:50;;;;;;;8.00;5.70;;;;;;;9.22;76.67;100180.38;1641806;85;21203;-83
2021/11/07 10:23:26;;;;;;;10.68;6.15;;;;;;;9.22;76.54;100176.45;1646983;84;21054;-81
2021/11/07 10:25:57;;;;;;;6.55;5.78;;;;;;;9.19;76.64;100173.31;1639999;86;21866;-82
2021/11/07 10:28:28;;;;;;;6.97;5.67;;;;;;;9.21;76.63;100172.03;1628782;88;21112;-86
2021/11/07 10:31:39;;;;;;;6.70;5.37;;;;;;;9.26;76.75;100163.83;1634832;86;21034;-86
2021/11/07 10:34:09;;;;;;;8.35;4.95;;;;;;;9.30;76.80;100163.03;1618453;87;21027;-86
2021/11/07 10:53:19;;;;;;;5.72;4.83;;;;;;;9.17;76.86;100146.57;1629723;88;21782;-90
2021/11/07 10:55:48;;;;;;;6.58;5.25;;;;;;;9.17;76.84;100142.20;1629995;87;21071;-93
2021/11/07 10:58:15;;;;;;;6.47;3.90;;;;;;;9.26;77.09;100132.32;1629992;88;21607;-92
2021/11/07 11:00:47;;;;;;;5.33;4.15;;;;;;;9.29;76.85;100142.46;1653620;86;21132;-91
2021/11/07 11:03:18;;;;;;;4.50;3.75;;;;;;;9.25;76.68;100142.34;1635232;86;79871;-82
2021/11/07 11:06:06;;;;;;;4.58;3.83;;;;;;;9.19;76.74;100138.30;1644806;86;21820;-82
2021/11/07 11:08:54;;;;;;;5.22;3.40;;;;;;;9.14;76.78;100139.49;1649650;86;21109;-81
2021/11/07 11:11:31;;;;;;;4.22;3.67;;;;;;;9.12;76.87;100137.27;1655997;85;21109;-81
2021/11/07 11:16:50;;;;;;;5.22;3.47;;;;;;;9.17;77.14;100136.06;1649146;85;21257;-85
2021/11/07 11:22:49;;;;;;;4.30;3.58;;;;;;;9.40;77.21;100125.58;1604379;87;21153;-86
2021/11/07 11:30:48;;;;;;;4.60;2.95;;;;;;;9.54;77.09;100121.92;1700992;82;22074;-83
2021/11/07 11:38:41;;;;;;;6.78;4.35;;;;;;;9.88;77.08;100101.52;1715034;83;21056;-82
2021/11/07 11:43:40;;;;;;;21.73;11.90;;;;;;;10.06;76.87;100078.17;1713937;83;21076;-82
2021/11/07 11:46:17;;;;;;;13.32;9.45;;;;;;;10.17;76.63;100077.00;1715213;83;21727;-82
2021/11/07 11:51:52;;;;;;;8.38;6.65;;;;;;;10.41;76.39;100063.81;1715309;83;21601;-82
2021/11/07 11:54:30;;;;;;;6.17;5.10;;;;;;;10.39;76.00;100062.91;1714091;83;21067;-82
2021/11/07 11:57:38;;;;;;;8.33;6.12;;;;;;;10.29;75.85;100066.68;1713633;83;21142;-82
2021/11/07 12:02:12;;;;;;;7.25;5.28;;;;;;;10.42;76.16;100050.69;1716061;83;21067;-82
2021/11/07 12:05:09;;;;;;;8.80;5.25;;;;;;;10.50;75.98;100042.89;1717786;83;21076;-82
2021/11/07 12:07:42;;;;;;;11.90;6.53;;;;;;;10.46;75.58;100043.72;1673019;84;21076;-81
2021/11/07 12:10:15;;;;;;;6.40;4.95;;;;;;;10.40;75.66;100048.47;1672108;85;21103;-81
2021/11/07 12:18:07;;;;;;;5.47;4.03;;;;;;;10.68;75.87;100039.64;1673058;84;21084;-81
2021/11/07 12:20:39;;;;;;;10.23;7.20;;;;;;;10.75;75.63;100035.33;1673186;85;21558;-81
2021/11/07 12:23:38;;;;;;;7.92;5.75;;;;;;;10.84;75.61;100035.00;1672549;84;21049;-81
2021/11/07 12:26:21;;;;;;;8.58;4.97;;;;;;;10.91;75.36;100032.03;1672381;85;22690;-81
2021/11/07 12:28:49;;;;;;;7.78;4.87;;;;;;;10.82;75.02;100034.55;1673029;85;21546;-82
2021/11/07 12:31:17;;;;;;;7.35;5.65;;;;;;;10.81;75.37;100031.03;1673360;85;21088;-81
2021/11/07 12:42:20;;;;;;;5.92;4.17;;;;;;;10.86;75.01;100031.08;1672815;85;21136;-82
2021/11/07 12:44:49;;;;;;;5.70;3.92;;;;;;;10.75;75.08;100028.74;1673086;84;21464;-82
2021/11/07 12:47:17;;;;;;;5.75;4.65;;;;;;;10.69;75.08;100028.23;1673197;84;21124;-81
2021/11/07 12:49:52;;;;;;;8.40;5.00;;;;;;;10.65;75.26;100029.94;1673378;85;21697;-82
2021/11/07 12:52:19;;;;;;;7.87;4.85;;;;;;;10.75;75.37;100028.74;1663145;84;21815;-82
2021/11/07 12:54:46;;;;;;;8.38;5.50;;;;;;;10.79;75.17;100030.55;1673340;85;21692;-81
2021/11/07 12:57:17;;;;;;;6.65;4.70;;;;;;;10.79;75.15;100025.28;1673359;84;21089;-81
2021/11/07 12:59:50;;;;;;;9.08;4.15;;;;;;;10.86;75.13;100023.17;1673346;84;21539;-82
2021/11/07 13:02:28;;;;;;;8.03;4.78;;;;;;;10.94;75.14;100021.95;1671281;84;21622;-82
2021/11/07 13:05:15;;;;;;;7.90;4.50;;;;;;;11.00;74.98;100021.61;1712119;83;22836;-82
2021/11/07 13:07:51;;;;;;;6.42;4.03;;;;;;;10.97;74.73;100016.29;1712363;83;21005;-82
2021/11/07 13:10:42;;;;;;;5.47;4.08;;;;;;;10.93;74.73;100015.81;1711165;82;21163;-81
2021/11/07 13:13:12;;;;;;;5.45;4.50;;;;;;;10.85;74.61;100020.11;1711149;83;21071;-81
2021/11/07 13:27:06;;;;;;;8.40;6.30;;;;;;;10.30;75.13;100007.05;1712051;83;21641;-82
2021/11/07 13:32:19;;;;;;;5.58;4.08;;;;;;;10.04;75.16;100014.56;1707961;83;21768;-81
2021/11/07 13:34:56;;;;;;;6.75;4.62;;;;;;;9.90;75.48;100013.92;1696547;83;21264;-81
2021/11/07 13:37:30;;;;;;;5.95;4.67;;;;;;;9.95;75.98;100028.88;1706998;83;21111;-82
2021/11/07 13:40:16;;;;;;;8.58;4.67;;;;;;;9.99;75.91;100025.46;1707309;83;21136;-81
2021/11/07 13:42:48;;;;;;;7.15;4.53;;;;;;;10.00;75.98;100021.95;1706764;84;21092;-82
2021/11/07 13:45:26;;;;;;;;;;;;;;;10.01;75.90;100015.84;1703925;84;21035;-81
2021/11/07 13:47:53;;;;;;;7.00;4.70;;;;;;;9.99;75.85;100012.31;1704281;84;20847;-81